createdAt,value
2023-06-11T00:01:45.658Z,24.66
2023-06-11T00:06:48.103Z,24.70
2023-06-11T00:11:50.452Z,24.63
2023-06-11T00:16:52.804Z,24.46
2023-06-11T00:21:57.432Z,24.39
2023-06-11T00:27:02.868Z,23.95
2023-06-11T00:32:05.718Z,23.41
2023-06-11T00:37:08.056Z,23.53
2023-06-11T00:42:11.586Z,23.32
2023-06-11T00:47:16.348Z,23.01
2023-06-11T00:52:19.777Z,22.80
2023-06-11T00:57:26.242Z,23.15
2023-06-11T01:02:40.611Z,23.66
2023-06-11T01:07:51.927Z,23.76
2023-06-11T01:13:02.710Z,24.03
2023-06-11T01:18:20.539Z,24.22
2023-06-11T01:23:42.372Z,24.26
2023-06-11T01:28:51.268Z,24.14
2023-06-11T01:33:54.344Z,24.01
2023-06-11T01:39:00.244Z,23.18
2023-06-11T01:44:30.634Z,22.90
2023-06-11T01:49:33.029Z,23.21
2023-06-11T01:54:35.668Z,23.22
2023-06-11T01:59:37.865Z,23.36
2023-06-11T02:04:40.051Z,23.25
2023-06-11T02:09:42.392Z,23.36
2023-06-11T02:14:44.633Z,22.85
2023-06-11T02:19:46.778Z,22.74
2023-06-11T02:24:49.116Z,22.86
2023-06-11T02:29:51.584Z,22.08
2023-06-11T02:34:53.891Z,22.41
2023-06-11T02:39:56.297Z,23.15
2023-06-11T02:44:58.489Z,23.30
2023-06-11T02:50:00.980Z,22.92
2023-06-11T02:55:03.463Z,22.43
2023-06-11T03:00:07.384Z,23.00
2023-06-11T03:05:10.153Z,23.01
2023-06-11T03:10:13.672Z,22.76
2023-06-11T03:15:16.082Z,22.39
2023-06-11T03:25:20.606Z,21.30
2023-06-11T03:30:22.783Z,22.09
2023-06-11T03:35:25.224Z,22.40
2023-06-11T03:40:28.457Z,22.10
2023-06-11T03:45:32.008Z,21.45
2023-06-11T03:50:34.890Z,22.25
2023-06-11T03:55:37.409Z,21.96
2023-06-11T04:00:40.662Z,21.52
2023-06-11T04:05:43.714Z,21.72
2023-06-11T04:10:46.561Z,22.35
2023-06-11T04:15:48.791Z,22.72
2023-06-11T04:20:51.181Z,22.46
2023-06-11T04:25:56.545Z,22.21
2023-06-11T04:31:01.113Z,22.35
2023-06-11T04:36:09.938Z,22.45
2023-06-11T04:41:13.554Z,22.76
2023-06-11T04:46:17.650Z,23.20
2023-06-11T04:51:21.866Z,23.52
2023-06-11T04:56:27.048Z,23.63
2023-06-11T05:01:31.699Z,23.53
2023-06-11T05:06:35.648Z,23.22
2023-06-11T05:11:45.505Z,23.22
2023-06-11T05:16:51.829Z,23.36
2023-06-11T05:21:54.461Z,23.35
2023-06-11T05:26:57.808Z,22.72
2023-06-11T05:32:01.817Z,22.96
2023-06-11T05:37:05.443Z,23.12
2023-06-11T05:42:08.785Z,22.81
2023-06-11T05:47:13.188Z,22.84
2023-06-11T05:52:15.506Z,22.90
2023-06-11T05:57:24.272Z,22.62
2023-06-11T06:02:30.024Z,23.22
2023-06-11T06:07:34.554Z,23.30
2023-06-11T06:12:36.770Z,23.08
2023-06-11T06:17:39.880Z,23.07
2023-06-11T06:22:42.701Z,23.08
2023-06-11T06:27:45.097Z,22.68
2023-06-11T06:32:47.675Z,22.84
2023-06-11T06:37:50.601Z,23.08
2023-06-11T06:42:52.908Z,23.04
2023-06-11T06:48:03.374Z,23.06
2023-06-11T06:53:06.255Z,23.72
2023-06-11T06:58:08.514Z,24.01
2023-06-11T07:03:13.518Z,24.13
2023-06-11T07:08:16.273Z,24.18
2023-06-11T07:13:21.446Z,24.43
2023-06-11T07:18:23.943Z,24.19
2023-06-11T07:23:29.177Z,24.66
2023-06-11T07:28:31.969Z,25.05
2023-06-11T07:33:35.215Z,25.27
2023-06-11T07:38:37.766Z,25.59
2023-06-11T07:43:40.712Z,25.93
2023-06-11T07:48:46.426Z,25.83
2023-06-11T07:53:48.981Z,26.29
2023-06-11T07:58:51.338Z,26.25
2023-06-11T08:03:53.564Z,26.81
2023-06-11T08:08:57.117Z,27.38
2023-06-11T08:13:59.314Z,27.48
2023-06-11T08:19:01.810Z,27.10
2023-06-11T08:24:05.078Z,27.94
2023-06-11T08:29:16.835Z,28.06
2023-06-11T08:34:20.248Z,27.18
2023-06-11T08:39:22.440Z,27.99
2023-06-11T08:44:27.244Z,27.86
2023-06-11T08:49:31.703Z,28.29
2023-06-11T08:54:34.177Z,29.02
2023-06-11T08:59:36.380Z,28.72
2023-06-11T09:04:43.051Z,29.44
2023-06-11T09:09:45.324Z,30.29
2023-06-11T09:14:53.746Z,30.28
2023-06-11T09:19:57.389Z,30.41
2023-06-11T09:25:04.992Z,29.78
2023-06-11T09:30:13.000Z,30.11
2023-06-11T09:35:20.200Z,30.42
2023-06-11T09:40:25.185Z,29.95
2023-06-11T09:45:27.796Z,31.44
2023-06-11T09:50:34.285Z,31.84
2023-06-11T09:55:37.051Z,31.83
2023-06-11T10:00:39.676Z,32.07
2023-06-11T10:05:42.319Z,33.00
2023-06-11T10:10:52.881Z,33.58
2023-06-11T10:15:55.333Z,32.28
2023-06-11T10:21:06.019Z,32.42
2023-06-11T10:26:13.562Z,32.73
2023-06-11T10:31:41.062Z,33.65
2023-06-11T10:36:43.383Z,34.07
2023-06-11T10:41:45.959Z,34.72
2023-06-11T10:46:54.668Z,34.78
2023-06-11T10:51:57.324Z,34.70
2023-06-11T10:57:04.475Z,34.14
2023-06-11T11:02:13.510Z,34.77
2023-06-11T11:07:16.060Z,33.37
2023-06-11T11:12:18.308Z,33.92
2023-06-11T11:17:20.614Z,35.74
2023-06-11T11:22:22.856Z,34.68
2023-06-11T11:27:25.037Z,35.37
2023-06-11T11:32:35.576Z,34.46
2023-06-11T11:37:37.928Z,34.40
2023-06-11T11:42:50.826Z,36.50
2023-06-11T11:47:53.793Z,34.75
2023-06-11T11:53:16.635Z,35.44
2023-06-11T11:58:18.986Z,35.86
2023-06-11T12:03:23.660Z,35.18
2023-06-11T12:08:28.324Z,32.60
2023-06-11T12:13:31.309Z,31.97
2023-06-11T12:18:34.829Z,33.26
2023-06-11T12:23:37.024Z,32.37
2023-06-11T12:28:39.299Z,33.84
2023-06-11T12:33:41.479Z,35.31
2023-06-11T12:38:43.748Z,32.83
2023-06-11T12:43:45.914Z,32.94
2023-06-11T12:48:48.052Z,34.77
2023-06-11T12:53:53.934Z,32.94
2023-06-11T12:58:58.418Z,33.16
2023-06-11T13:04:00.871Z,32.40
2023-06-11T13:09:04.051Z,33.77
2023-06-11T13:14:06.406Z,35.55
2023-06-11T13:19:09.345Z,35.91
2023-06-11T13:24:11.750Z,35.84
2023-06-11T13:29:14.072Z,35.07
2023-06-11T13:34:16.431Z,35.16
2023-06-11T13:39:18.830Z,35.08
2023-06-11T13:44:21.066Z,34.22
2023-06-11T13:49:25.183Z,34.67
2023-06-11T13:54:29.675Z,34.98
2023-06-11T13:59:32.952Z,34.75
2023-06-11T14:04:35.168Z,33.90
2023-06-11T14:09:37.410Z,34.01
2023-06-11T14:14:39.632Z,32.35
2023-06-11T14:19:41.799Z,33.15
2023-06-11T14:24:44.318Z,33.08
2023-06-11T14:29:46.521Z,33.09
2023-06-11T14:34:48.681Z,32.85
2023-06-11T14:39:50.941Z,31.85
2023-06-11T14:44:53.197Z,30.62
2023-06-11T14:49:55.462Z,30.23
2023-06-11T14:54:59.768Z,30.87
2023-06-11T15:00:05.492Z,31.20
2023-06-11T15:05:08.728Z,31.19
2023-06-11T15:10:11.988Z,31.06
2023-06-11T15:15:14.474Z,31.11
2023-06-11T15:20:16.777Z,31.43
2023-06-11T15:25:19.157Z,31.48
2023-06-11T15:30:21.544Z,30.65
2023-06-11T15:35:23.773Z,29.87
2023-06-11T15:40:25.943Z,29.83
2023-06-11T15:45:28.337Z,30.29
2023-06-11T15:50:30.729Z,30.13
2023-06-11T15:55:33.135Z,30.12
2023-06-11T16:00:35.455Z,29.94
2023-06-11T16:05:38.888Z,29.92
2023-06-11T16:10:41.158Z,30.13
2023-06-11T16:15:45.113Z,29.65
2023-06-11T16:20:47.551Z,29.52
2023-06-11T16:25:49.939Z,29.48
2023-06-11T16:30:52.169Z,29.54
2023-06-11T16:35:54.266Z,29.62
2023-06-11T16:40:56.880Z,29.56
2023-06-11T16:45:59.142Z,29.17
2023-06-11T16:51:01.559Z,29.10
2023-06-11T16:56:04.290Z,29.05
2023-06-11T17:01:06.551Z,29.16
2023-06-11T17:06:08.729Z,29.15
2023-06-11T17:11:11.212Z,29.30
2023-06-11T17:16:13.449Z,29.11
2023-06-11T17:21:15.812Z,29.08
2023-06-11T17:26:17.993Z,28.89
2023-06-11T17:31:20.428Z,28.90
2023-06-11T17:36:22.638Z,28.69
2023-06-11T17:41:25.049Z,28.59
2023-06-11T17:46:27.334Z,28.20
2023-06-11T17:51:29.611Z,28.35
2023-06-11T17:56:32.113Z,28.41
2023-06-11T18:01:36.369Z,28.31
2023-06-11T18:06:39.430Z,28.36
2023-06-11T18:11:42.661Z,28.23
2023-06-11T18:16:44.873Z,28.23
2023-06-11T18:21:47.119Z,28.38
2023-06-11T18:26:49.427Z,28.17
2023-06-11T18:31:51.662Z,28.04
2023-06-11T18:36:53.868Z,28.25
2023-06-11T18:41:56.374Z,28.09
2023-06-11T18:47:02.249Z,28.08
2023-06-11T18:52:06.503Z,27.85
2023-06-11T18:57:09.747Z,27.95
2023-06-11T19:02:11.958Z,28.02
2023-06-11T19:07:16.513Z,27.97
2023-06-11T19:12:19.179Z,27.95
2023-06-11T19:17:21.626Z,27.94
2023-06-11T19:22:23.933Z,27.90
2023-06-11T19:27:29.641Z,27.72
2023-06-11T19:32:32.272Z,27.62
2023-06-11T19:37:35.938Z,27.61
2023-06-11T19:42:38.556Z,27.55
2023-06-11T19:47:41.006Z,27.28
2023-06-11T19:52:43.342Z,27.06
2023-06-11T19:57:45.873Z,27.17
2023-06-11T20:02:49.204Z,27.20
2023-06-11T20:07:51.436Z,27.17
2023-06-11T20:12:53.654Z,27.05
2023-06-11T20:17:55.921Z,27.03
2023-06-11T20:22:58.269Z,26.97
2023-06-11T20:28:00.593Z,26.76
2023-06-11T20:33:03.417Z,26.68
2023-06-11T20:38:05.815Z,26.49
2023-06-11T20:43:08.180Z,26.52
2023-06-11T20:48:10.401Z,26.42
2023-06-11T20:53:24.114Z,26.16
2023-06-11T20:58:35.203Z,26.30
2023-06-11T21:03:37.423Z,25.90
2023-06-11T21:08:39.600Z,26.14
2023-06-11T21:13:41.833Z,26.21
2023-06-11T21:18:44.035Z,26.20
2023-06-11T21:23:46.352Z,25.74
2023-06-11T21:28:48.873Z,25.32
2023-06-11T21:33:51.010Z,25.12
2023-06-11T21:38:53.186Z,25.15
2023-06-11T21:43:55.473Z,25.02
2023-06-11T21:48:59.321Z,24.56
2023-06-11T21:54:01.897Z,25.06
2023-06-11T21:59:04.232Z,25.38
2023-06-11T22:04:06.532Z,25.35
2023-06-11T22:09:14.870Z,25.22
2023-06-11T22:14:17.219Z,25.36
2023-06-11T22:19:20.030Z,25.34
2023-06-11T22:24:22.588Z,25.33
2023-06-11T22:29:24.760Z,25.30
2023-06-11T22:34:26.929Z,25.20
2023-06-11T22:39:29.172Z,24.98
2023-06-11T22:44:31.526Z,24.67
2023-06-11T22:49:34.415Z,24.87
2023-06-11T22:54:39.409Z,24.93
2023-06-11T22:59:41.899Z,25.00
2023-06-11T23:04:46.393Z,24.81
2023-06-11T23:09:48.881Z,24.83
2023-06-11T23:14:51.097Z,24.74
2023-06-11T23:19:53.242Z,24.65
2023-06-11T23:24:55.541Z,24.74
2023-06-11T23:29:57.928Z,24.77
2023-06-11T23:35:01.565Z,24.66
2023-06-11T23:40:05.668Z,24.66
2023-06-11T23:45:08.400Z,24.55
2023-06-11T23:50:11.481Z,24.61
2023-06-11T23:55:15.099Z,24.50
